sensor_id;sensor_type;location;lat;lon;timestamp;P1;durP1;ratioP1;P2;durP2;ratioP2
2850;SDS011;1433;49.976;8.342;2023-08-17T00:00:42;1.00;;;0.70;;
2850;SDS011;1433;49.976;8.342;2023-08-17T00:03:08;1.00;;;0.70;;
2850;SDS011;1433;49.976;8.342;2023-08-17T00:05:35;1.00;;;0.70;;
2850;SDS011;1433;49.976;8.342;2023-08-17T00:08:01;1.00;;;0.70;;
2850;SDS011;1433;49.976;8.342;2023-08-17T00:10:28;1.00;;;0.73;;
2850;SDS011;1433;49.976;8.342;2023-08-17T00:12:54;1.00;;;0.70;;
2850;SDS011;1433;49.976;8.342;2023-08-17T00:15:20;1.00;;;0.80;;
2850;SDS011;1433;49.976;8.342;2023-08-17T00:17:47;1.00;;;0.80;;
2850;SDS011;1433;49.976;8.342;2023-08-17T00:20:13;1.00;;;0.70;;
2850;SDS011;1433;49.976;8.342;2023-08-17T00:22:39;1.00;;;0.70;;
2850;SDS011;1433;49.976;8.342;2023-08-17T00:25:06;1.00;;;0.70;;
2850;SDS011;1433;49.976;8.342;2023-08-17T00:27:33;1.00;;;0.80;;
2850;SDS011;1433;49.976;8.342;2023-08-17T00:30:00;1.00;;;0.70;;
2850;SDS011;1433;49.976;8.342;2023-08-17T00:32:26;1.00;;;0.80;;
2850;SDS011;1433;49.976;8.342;2023-08-17T00:34:52;1.00;;;0.70;;
2850;SDS011;1433;49.976;8.342;2023-08-17T00:37:19;1.00;;;0.70;;
2850;SDS011;1433;49.976;8.342;2023-08-17T00:39:46;1.00;;;0.70;;
2850;SDS011;1433;49.976;8.342;2023-08-17T00:42:12;1.00;;;0.70;;
2850;SDS011;1433;49.976;8.342;2023-08-17T00:44:38;1.00;;;0.70;;
2850;SDS011;1433;49.976;8.342;2023-08-17T00:47:04;1.00;;;0.80;;
2850;SDS011;1433;49.976;8.342;2023-08-17T00:49:30;1.00;;;0.70;;
2850;SDS011;1433;49.976;8.342;2023-08-17T00:51:57;1.00;;;0.70;;
2850;SDS011;1433;49.976;8.342;2023-08-17T00:54:24;1.00;;;0.70;;
2850;SDS011;1433;49.976;8.342;2023-08-17T00:56:52;1.00;;;0.70;;
2850;SDS011;1433;49.976;8.342;2023-08-17T00:59:20;1.00;;;0.80;;
2850;SDS011;1433;49.976;8.342;2023-08-17T01:01:47;1.00;;;0.80;;
2850;SDS011;1433;49.976;8.342;2023-08-17T01:04:14;1.00;;;0.80;;
2850;SDS011;1433;49.976;8.342;2023-08-17T01:06:41;1.30;;;1.20;;
2850;SDS011;1433;49.976;8.342;2023-08-17T01:09:10;1.00;;;0.70;;
2850;SDS011;1433;49.976;8.342;2023-08-17T01:11:37;1.00;;;0.70;;
2850;SDS011;1433;49.976;8.342;2023-08-17T01:14:16;1.00;;;0.83;;
2850;SDS011;1433;49.976;8.342;2023-08-17T01:16:47;1.00;;;0.70;;
2850;SDS011;1433;49.976;8.342;2023-08-17T01:19:13;1.00;;;0.70;;
2850;SDS011;1433;49.976;8.342;2023-08-17T01:21:44;1.00;;;0.70;;
2850;SDS011;1433;49.976;8.342;2023-08-17T01:24:13;1.00;;;0.70;;
2850;SDS011;1433;49.976;8.342;2023-08-17T01:26:40;1.00;;;0.70;;
2850;SDS011;1433;49.976;8.342;2023-08-17T01:29:06;1.00;;;0.70;;
2850;SDS011;1433;49.976;8.342;2023-08-17T01:31:36;2.33;;;1.10;;
2850;SDS011;1433;49.976;8.342;2023-08-17T01:34:05;1.00;;;0.70;;
2850;SDS011;1433;49.976;8.342;2023-08-17T01:36:37;1.00;;;0.70;;
2850;SDS011;1433;49.976;8.342;2023-08-17T01:39:10;1.00;;;0.70;;
2850;SDS011;1433;49.976;8.342;2023-08-17T01:41:37;1.00;;;0.70;;
2850;SDS011;1433;49.976;8.342;2023-08-17T01:44:06;1.00;;;0.80;;
2850;SDS011;1433;49.976;8.342;2023-08-17T01:46:32;1.00;;;0.70;;
2850;SDS011;1433;49.976;8.342;2023-08-17T01:48:59;1.00;;;0.70;;
2850;SDS011;1433;49.976;8.342;2023-08-17T01:51:25;1.00;;;0.80;;
2850;SDS011;1433;49.976;8.342;2023-08-17T01:53:51;1.00;;;0.70;;
2850;SDS011;1433;49.976;8.342;2023-08-17T01:56:18;1.00;;;0.70;;
2850;SDS011;1433;49.976;8.342;2023-08-17T01:58:44;1.00;;;0.70;;
2850;SDS011;1433;49.976;8.342;2023-08-17T02:01:11;1.00;;;0.70;;
2850;SDS011;1433;49.976;8.342;2023-08-17T02:03:37;1.00;;;0.70;;
2850;SDS011;1433;49.976;8.342;2023-08-17T02:06:03;1.00;;;0.70;;
2850;SDS011;1433;49.976;8.342;2023-08-17T02:08:29;1.00;;;0.70;;
2850;SDS011;1433;49.976;8.342;2023-08-17T02:10:56;1.00;;;0.70;;
2850;SDS011;1433;49.976;8.342;2023-08-17T02:13:22;1.00;;;0.80;;
2850;SDS011;1433;49.976;8.342;2023-08-17T02:15:48;1.00;;;0.70;;
2850;SDS011;1433;49.976;8.342;2023-08-17T02:18:14;1.00;;;0.70;;
2850;SDS011;1433;49.976;8.342;2023-08-17T02:20:40;1.00;;;0.70;;
2850;SDS011;1433;49.976;8.342;2023-08-17T02:23:06;1.00;;;0.70;;
2850;SDS011;1433;49.976;8.342;2023-08-17T02:25:33;1.00;;;0.80;;
2850;SDS011;1433;49.976;8.342;2023-08-17T02:28:02;1.00;;;0.70;;
2850;SDS011;1433;49.976;8.342;2023-08-17T02:30:29;1.00;;;0.70;;
2850;SDS011;1433;49.976;8.342;2023-08-17T02:32:57;1.00;;;0.70;;
2850;SDS011;1433;49.976;8.342;2023-08-17T02:35:24;1.00;;;0.80;;
2850;SDS011;1433;49.976;8.342;2023-08-17T02:37:50;1.10;;;1.00;;
2850;SDS011;1433;49.976;8.342;2023-08-17T02:40:17;1.00;;;0.70;;
2850;SDS011;1433;49.976;8.342;2023-08-17T02:42:43;1.63;;;0.90;;
2850;SDS011;1433;49.976;8.342;2023-08-17T02:45:09;3.63;;;1.10;;
2850;SDS011;1433;49.976;8.342;2023-08-17T02:47:36;1.00;;;0.70;;
2850;SDS011;1433;49.976;8.342;2023-08-17T02:50:02;1.10;;;0.90;;
2850;SDS011;1433;49.976;8.342;2023-08-17T02:52:29;1.00;;;0.70;;
2850;SDS011;1433;49.976;8.342;2023-08-17T02:54:55;1.00;;;0.80;;
2850;SDS011;1433;49.976;8.342;2023-08-17T02:57:21;1.23;;;1.13;;
2850;SDS011;1433;49.976;8.342;2023-08-17T02:59:48;1.20;;;1.10;;
2850;SDS011;1433;49.976;8.342;2023-08-17T03:02:14;1.60;;;0.80;;
2850;SDS011;1433;49.976;8.342;2023-08-17T03:04:40;1.10;;;0.80;;
2850;SDS011;1433;49.976;8.342;2023-08-17T03:07:07;1.00;;;0.70;;
2850;SDS011;1433;49.976;8.342;2023-08-17T03:09:33;1.33;;;1.23;;
2850;SDS011;1433;49.976;8.342;2023-08-17T03:11:59;1.20;;;1.10;;
2850;SDS011;1433;49.976;8.342;2023-08-17T03:14:25;1.20;;;1.00;;
2850;SDS011;1433;49.976;8.342;2023-08-17T03:16:51;1.00;;;0.70;;
2850;SDS011;1433;49.976;8.342;2023-08-17T03:19:20;1.00;;;0.80;;
2850;SDS011;1433;49.976;8.342;2023-08-17T03:21:46;1.00;;;0.70;;
2850;SDS011;1433;49.976;8.342;2023-08-17T03:24:13;2.80;;;1.00;;
2850;SDS011;1433;49.976;8.342;2023-08-17T03:26:39;1.10;;;0.93;;
2850;SDS011;1433;49.976;8.342;2023-08-17T03:29:07;2.30;;;1.80;;
2850;SDS011;1433;49.976;8.342;2023-08-17T03:31:35;1.00;;;0.90;;
2850;SDS011;1433;49.976;8.342;2023-08-17T03:34:01;1.30;;;0.90;;
2850;SDS011;1433;49.976;8.342;2023-08-17T03:36:28;1.20;;;1.10;;
2850;SDS011;1433;49.976;8.342;2023-08-17T03:38:54;1.70;;;1.00;;
2850;SDS011;1433;49.976;8.342;2023-08-17T03:41:21;1.00;;;0.80;;
2850;SDS011;1433;49.976;8.342;2023-08-17T03:43:49;7.37;;;1.47;;
2850;SDS011;1433;49.976;8.342;2023-08-17T03:46:15;3.00;;;1.20;;
2850;SDS011;1433;49.976;8.342;2023-08-17T03:48:41;3.40;;;1.30;;
2850;SDS011;1433;49.976;8.342;2023-08-17T03:51:07;1.17;;;0.83;;
2850;SDS011;1433;49.976;8.342;2023-08-17T03:53:34;1.00;;;0.70;;
2850;SDS011;1433;49.976;8.342;2023-08-17T03:56:00;1.20;;;1.00;;
2850;SDS011;1433;49.976;8.342;2023-08-17T03:58:26;1.27;;;1.10;;
2850;SDS011;1433;49.976;8.342;2023-08-17T04:00:57;2.03;;;1.83;;
2850;SDS011;1433;49.976;8.342;2023-08-17T04:03:25;1.60;;;1.20;;
2850;SDS011;1433;49.976;8.342;2023-08-17T04:05:51;1.03;;;0.87;;
2850;SDS011;1433;49.976;8.342;2023-08-17T04:08:17;1.33;;;1.10;;
2850;SDS011;1433;49.976;8.342;2023-08-17T04:10:43;1.00;;;0.70;;
2850;SDS011;1433;49.976;8.342;2023-08-17T04:13:11;2.50;;;1.40;;
2850;SDS011;1433;49.976;8.342;2023-08-17T04:15:37;1.00;;;0.70;;
2850;SDS011;1433;49.976;8.342;2023-08-17T04:18:03;0.97;;;0.60;;
2850;SDS011;1433;49.976;8.342;2023-08-17T04:20:30;1.00;;;0.70;;
2850;SDS011;1433;49.976;8.342;2023-08-17T04:22:58;1.00;;;0.70;;
2850;SDS011;1433;49.976;8.342;2023-08-17T04:25:24;1.00;;;0.70;;
2850;SDS011;1433;49.976;8.342;2023-08-17T04:27:50;1.00;;;0.70;;
2850;SDS011;1433;49.976;8.342;2023-08-17T04:30:17;1.00;;;0.80;;
2850;SDS011;1433;49.976;8.342;2023-08-17T04:32:45;1.30;;;1.10;;
2850;SDS011;1433;49.976;8.342;2023-08-17T04:35:13;1.83;;;1.73;;
2850;SDS011;1433;49.976;8.342;2023-08-17T04:37:39;1.00;;;0.70;;
2850;SDS011;1433;49.976;8.342;2023-08-17T04:40:06;1.00;;;0.70;;
2850;SDS011;1433;49.976;8.342;2023-08-17T04:42:33;1.00;;;0.70;;
2850;SDS011;1433;49.976;8.342;2023-08-17T04:44:59;1.00;;;0.63;;
2850;SDS011;1433;49.976;8.342;2023-08-17T04:47:26;1.00;;;0.70;;
2850;SDS011;1433;49.976;8.342;2023-08-17T04:49:52;1.00;;;0.70;;
2850;SDS011;1433;49.976;8.342;2023-08-17T04:52:18;1.00;;;0.70;;
2850;SDS011;1433;49.976;8.342;2023-08-17T04:54:45;1.37;;;1.27;;
2850;SDS011;1433;49.976;8.342;2023-08-17T04:57:11;6.83;;;1.57;;
2850;SDS011;1433;49.976;8.342;2023-08-17T04:59:37;1.00;;;0.70;;
2850;SDS011;1433;49.976;8.342;2023-08-17T05:02:04;1.00;;;0.80;;
2850;SDS011;1433;49.976;8.342;2023-08-17T05:04:32;1.00;;;0.80;;
2850;SDS011;1433;49.976;8.342;2023-08-17T05:06:58;1.00;;;0.70;;
2850;SDS011;1433;49.976;8.342;2023-08-17T05:09:25;1.00;;;0.70;;
2850;SDS011;1433;49.976;8.342;2023-08-17T05:11:52;1.47;;;0.80;;
2850;SDS011;1433;49.976;8.342;2023-08-17T05:14:18;1.23;;;1.13;;
2850;SDS011;1433;49.976;8.342;2023-08-17T05:16:44;1.17;;;1.07;;
2850;SDS011;1433;49.976;8.342;2023-08-17T05:19:14;1.00;;;0.80;;
2850;SDS011;1433;49.976;8.342;2023-08-17T05:21:40;1.00;;;0.70;;
2850;SDS011;1433;49.976;8.342;2023-08-17T05:24:07;1.00;;;0.80;;
2850;SDS011;1433;49.976;8.342;2023-08-17T05:26:34;1.50;;;1.40;;
2850;SDS011;1433;49.976;8.342;2023-08-17T05:29:00;1.00;;;0.70;;
2850;SDS011;1433;49.976;8.342;2023-08-17T05:31:27;1.00;;;0.80;;
2850;SDS011;1433;49.976;8.342;2023-08-17T05:33:54;1.80;;;1.70;;
2850;SDS011;1433;49.976;8.342;2023-08-17T05:36:22;1.00;;;0.70;;
2850;SDS011;1433;49.976;8.342;2023-08-17T05:38:51;1.00;;;0.70;;
2850;SDS011;1433;49.976;8.342;2023-08-17T05:41:17;1.30;;;1.17;;
2850;SDS011;1433;49.976;8.342;2023-08-17T05:43:43;1.00;;;0.70;;
2850;SDS011;1433;49.976;8.342;2023-08-17T05:46:10;1.20;;;0.90;;
2850;SDS011;1433;49.976;8.342;2023-08-17T05:48:36;1.10;;;1.00;;
2850;SDS011;1433;49.976;8.342;2023-08-17T05:51:02;1.00;;;0.90;;
2850;SDS011;1433;49.976;8.342;2023-08-17T05:53:28;1.00;;;0.70;;
2850;SDS011;1433;49.976;8.342;2023-08-17T05:55:54;1.00;;;0.70;;
2850;SDS011;1433;49.976;8.342;2023-08-17T05:58:20;1.00;;;0.80;;
2850;SDS011;1433;49.976;8.342;2023-08-17T06:00:47;1.00;;;0.70;;
2850;SDS011;1433;49.976;8.342;2023-08-17T06:03:13;1.00;;;0.70;;
2850;SDS011;1433;49.976;8.342;2023-08-17T06:05:39;1.00;;;0.70;;
2850;SDS011;1433;49.976;8.342;2023-08-17T06:08:06;1.00;;;0.80;;
2850;SDS011;1433;49.976;8.342;2023-08-17T06:10:32;1.00;;;0.70;;
2850;SDS011;1433;49.976;8.342;2023-08-17T06:12:58;1.23;;;1.13;;
2850;SDS011;1433;49.976;8.342;2023-08-17T06:15:24;1.77;;;0.90;;
2850;SDS011;1433;49.976;8.342;2023-08-17T06:17:51;1.00;;;0.70;;
2850;SDS011;1433;49.976;8.342;2023-08-17T06:20:18;1.67;;;1.20;;
2850;SDS011;1433;49.976;8.342;2023-08-17T06:22:44;1.00;;;0.70;;
2850;SDS011;1433;49.976;8.342;2023-08-17T06:25:11;1.00;;;0.70;;
2850;SDS011;1433;49.976;8.342;2023-08-17T06:27:37;1.00;;;0.70;;
2850;SDS011;1433;49.976;8.342;2023-08-17T06:30:03;1.00;;;0.70;;
2850;SDS011;1433;49.976;8.342;2023-08-17T06:32:30;1.00;;;0.70;;
2850;SDS011;1433;49.976;8.342;2023-08-17T06:34:56;1.00;;;0.80;;
2850;SDS011;1433;49.976;8.342;2023-08-17T06:37:23;1.00;;;0.80;;
2850;SDS011;1433;49.976;8.342;2023-08-17T06:39:49;1.00;;;0.70;;
2850;SDS011;1433;49.976;8.342;2023-08-17T06:42:15;1.00;;;0.70;;
2850;SDS011;1433;49.976;8.342;2023-08-17T06:44:42;1.00;;;0.80;;
2850;SDS011;1433;49.976;8.342;2023-08-17T06:47:08;1.00;;;0.70;;
2850;SDS011;1433;49.976;8.342;2023-08-17T06:49:34;1.00;;;0.70;;
2850;SDS011;1433;49.976;8.342;2023-08-17T06:52:01;1.00;;;0.70;;
2850;SDS011;1433;49.976;8.342;2023-08-17T06:54:27;1.00;;;0.70;;
2850;SDS011;1433;49.976;8.342;2023-08-17T06:56:53;1.00;;;0.80;;
2850;SDS011;1433;49.976;8.342;2023-08-17T06:59:19;1.00;;;0.70;;
2850;SDS011;1433;49.976;8.342;2023-08-17T07:01:45;1.00;;;0.80;;
2850;SDS011;1433;49.976;8.342;2023-08-17T07:04:11;1.83;;;1.67;;
2850;SDS011;1433;49.976;8.342;2023-08-17T07:06:37;1.00;;;0.70;;
2850;SDS011;1433;49.976;8.342;2023-08-17T07:09:04;1.00;;;0.70;;
2850;SDS011;1433;49.976;8.342;2023-08-17T07:11:30;1.00;;;0.70;;
2850;SDS011;1433;49.976;8.342;2023-08-17T07:13:57;1.00;;;0.70;;
2850;SDS011;1433;49.976;8.342;2023-08-17T07:16:23;1.00;;;0.70;;
2850;SDS011;1433;49.976;8.342;2023-08-17T07:18:49;1.00;;;0.70;;
2850;SDS011;1433;49.976;8.342;2023-08-17T07:21:15;1.00;;;0.70;;
2850;SDS011;1433;49.976;8.342;2023-08-17T07:23:43;1.00;;;0.70;;
2850;SDS011;1433;49.976;8.342;2023-08-17T07:26:11;1.00;;;0.70;;
2850;SDS011;1433;49.976;8.342;2023-08-17T07:28:37;1.00;;;0.70;;
2850;SDS011;1433;49.976;8.342;2023-08-17T07:31:03;1.00;;;0.70;;
2850;SDS011;1433;49.976;8.342;2023-08-17T07:33:31;1.00;;;0.70;;
2850;SDS011;1433;49.976;8.342;2023-08-17T07:35:57;1.00;;;0.70;;
2850;SDS011;1433;49.976;8.342;2023-08-17T07:38:24;1.00;;;0.70;;
2850;SDS011;1433;49.976;8.342;2023-08-17T07:40:50;1.00;;;0.70;;
2850;SDS011;1433;49.976;8.342;2023-08-17T07:43:16;1.00;;;0.70;;
2850;SDS011;1433;49.976;8.342;2023-08-17T07:45:42;1.00;;;0.70;;
2850;SDS011;1433;49.976;8.342;2023-08-17T07:48:08;1.00;;;0.70;;
2850;SDS011;1433;49.976;8.342;2023-08-17T07:50:34;1.00;;;0.70;;
2850;SDS011;1433;49.976;8.342;2023-08-17T07:53:00;1.00;;;0.77;;
2850;SDS011;1433;49.976;8.342;2023-08-17T07:55:27;1.00;;;0.70;;
2850;SDS011;1433;49.976;8.342;2023-08-17T07:57:53;1.00;;;0.80;;
2850;SDS011;1433;49.976;8.342;2023-08-17T08:00:19;1.00;;;0.80;;
2850;SDS011;1433;49.976;8.342;2023-08-17T08:02:46;1.00;;;0.70;;
2850;SDS011;1433;49.976;8.342;2023-08-17T08:05:12;1.10;;;0.90;;
2850;SDS011;1433;49.976;8.342;2023-08-17T08:07:40;1.00;;;0.80;;
2850;SDS011;1433;49.976;8.342;2023-08-17T08:10:07;1.00;;;0.70;;
2850;SDS011;1433;49.976;8.342;2023-08-17T08:12:33;1.00;;;0.77;;
2850;SDS011;1433;49.976;8.342;2023-08-17T08:15:00;1.00;;;0.70;;
2850;SDS011;1433;49.976;8.342;2023-08-17T08:17:26;1.00;;;0.70;;
2850;SDS011;1433;49.976;8.342;2023-08-17T08:19:52;1.00;;;0.70;;
2850;SDS011;1433;49.976;8.342;2023-08-17T08:22:19;1.00;;;0.70;;
2850;SDS011;1433;49.976;8.342;2023-08-17T08:24:45;1.00;;;0.70;;
2850;SDS011;1433;49.976;8.342;2023-08-17T08:27:12;1.00;;;0.70;;
2850;SDS011;1433;49.976;8.342;2023-08-17T08:29:38;1.00;;;0.70;;
2850;SDS011;1433;49.976;8.342;2023-08-17T08:32:04;1.00;;;0.70;;
2850;SDS011;1433;49.976;8.342;2023-08-17T08:34:30;1.00;;;0.70;;
2850;SDS011;1433;49.976;8.342;2023-08-17T08:36:56;1.00;;;0.70;;
2850;SDS011;1433;49.976;8.342;2023-08-17T08:39:24;5.80;;;5.33;;
2850;SDS011;1433;49.976;8.342;2023-08-17T08:41:53;4.77;;;4.13;;
2850;SDS011;1433;49.976;8.342;2023-08-17T08:44:19;4.27;;;3.93;;
2850;SDS011;1433;49.976;8.342;2023-08-17T08:46:46;5.13;;;4.67;;
2850;SDS011;1433;49.976;8.342;2023-08-17T08:49:19;4.80;;;4.40;;
2850;SDS011;1433;49.976;8.342;2023-08-17T08:51:44;6.03;;;5.63;;
2850;SDS011;1433;49.976;8.342;2023-08-17T08:54:13;4.63;;;4.33;;
2850;SDS011;1433;49.976;8.342;2023-08-17T08:56:42;5.77;;;4.97;;
2850;SDS011;1433;49.976;8.342;2023-08-17T08:59:11;4.13;;;3.83;;
2850;SDS011;1433;49.976;8.342;2023-08-17T09:01:37;4.90;;;4.17;;
2850;SDS011;1433;49.976;8.342;2023-08-17T09:04:05;5.57;;;4.50;;
2850;SDS011;1433;49.976;8.342;2023-08-17T09:06:31;4.83;;;4.43;;
2850;SDS011;1433;49.976;8.342;2023-08-17T09:08:58;7.67;;;5.23;;
2850;SDS011;1433;49.976;8.342;2023-08-17T09:11:31;5.47;;;4.97;;
2850;SDS011;1433;49.976;8.342;2023-08-17T09:13:55;4.67;;;4.37;;
2850;SDS011;1433;49.976;8.342;2023-08-17T09:16:22;4.97;;;4.53;;
2850;SDS011;1433;49.976;8.342;2023-08-17T09:18:48;5.30;;;4.90;;
2850;SDS011;1433;49.976;8.342;2023-08-17T09:21:21;4.70;;;4.20;;
2850;SDS011;1433;49.976;8.342;2023-08-17T09:23:53;4.30;;;3.90;;
2850;SDS011;1433;49.976;8.342;2023-08-17T09:26:21;3.30;;;2.80;;
2850;SDS011;1433;49.976;8.342;2023-08-17T09:28:52;5.40;;;5.00;;
2850;SDS011;1433;49.976;8.342;2023-08-17T09:31:25;5.03;;;4.07;;
2850;SDS011;1433;49.976;8.342;2023-08-17T09:33:52;7.00;;;4.10;;
2850;SDS011;1433;49.976;8.342;2023-08-17T09:36:22;5.70;;;5.20;;
2850;SDS011;1433;49.976;8.342;2023-08-17T09:38:49;5.80;;;5.30;;
2850;SDS011;1433;49.976;8.342;2023-08-17T09:41:17;6.00;;;4.70;;
2850;SDS011;1433;49.976;8.342;2023-08-17T09:43:45;4.60;;;3.93;;
2850;SDS011;1433;49.976;8.342;2023-08-17T09:46:13;6.40;;;5.10;;
2850;SDS011;1433;49.976;8.342;2023-08-17T09:48:40;3.63;;;3.30;;
2850;SDS011;1433;49.976;8.342;2023-08-17T09:51:14;4.47;;;4.07;;
2850;SDS011;1433;49.976;8.342;2023-08-17T09:53:43;3.93;;;3.60;;
2850;SDS011;1433;49.976;8.342;2023-08-17T09:56:09;5.90;;;3.37;;
2850;SDS011;1433;49.976;8.342;2023-08-17T09:58:39;3.33;;;3.00;;
2850;SDS011;1433;49.976;8.342;2023-08-17T10:01:05;3.53;;;2.73;;
2850;SDS011;1433;49.976;8.342;2023-08-17T10:03:34;2.87;;;2.60;;
2850;SDS011;1433;49.976;8.342;2023-08-17T10:06:04;3.17;;;2.87;;
2850;SDS011;1433;49.976;8.342;2023-08-17T10:08:33;3.80;;;3.50;;
2850;SDS011;1433;49.976;8.342;2023-08-17T10:11:03;2.77;;;2.57;;
2850;SDS011;1433;49.976;8.342;2023-08-17T10:13:37;4.20;;;3.33;;
2850;SDS011;1433;49.976;8.342;2023-08-17T10:18:37;3.80;;;3.00;;
2850;SDS011;1433;49.976;8.342;2023-08-17T10:21:13;2.83;;;2.60;;
2850;SDS011;1433;49.976;8.342;2023-08-17T10:23:42;2.77;;;2.57;;
2850;SDS011;1433;49.976;8.342;2023-08-17T10:26:11;5.43;;;2.93;;
2850;SDS011;1433;49.976;8.342;2023-08-17T10:28:37;4.70;;;2.40;;
2850;SDS011;1433;49.976;8.342;2023-08-17T10:31:05;3.17;;;2.87;;
2850;SDS011;1433;49.976;8.342;2023-08-17T10:33:32;2.50;;;2.03;;
2850;SDS011;1433;49.976;8.342;2023-08-17T10:35:59;4.87;;;2.50;;
2850;SDS011;1433;49.976;8.342;2023-08-17T10:38:26;2.77;;;2.00;;
2850;SDS011;1433;49.976;8.342;2023-08-17T10:41:07;3.60;;;2.10;;
2850;SDS011;1433;49.976;8.342;2023-08-17T10:43:53;2.20;;;2.00;;
2850;SDS011;1433;49.976;8.342;2023-08-17T10:46:31;2.00;;;1.70;;
2850;SDS011;1433;49.976;8.342;2023-08-17T10:49:04;3.50;;;2.40;;
2850;SDS011;1433;49.976;8.342;2023-08-17T10:51:32;2.37;;;2.13;;
2850;SDS011;1433;49.976;8.342;2023-08-17T10:54:03;2.63;;;2.43;;
2850;SDS011;1433;49.976;8.342;2023-08-17T10:56:30;3.50;;;2.67;;
2850;SDS011;1433;49.976;8.342;2023-08-17T10:59:04;2.57;;;2.37;;
2850;SDS011;1433;49.976;8.342;2023-08-17T11:01:39;2.60;;;2.40;;
2850;SDS011;1433;49.976;8.342;2023-08-17T11:04:15;4.57;;;2.57;;
2850;SDS011;1433;49.976;8.342;2023-08-17T11:06:41;2.33;;;2.10;;
2850;SDS011;1433;49.976;8.342;2023-08-17T11:09:08;3.63;;;2.07;;
2850;SDS011;1433;49.976;8.342;2023-08-17T11:11:35;2.77;;;2.47;;
2850;SDS011;1433;49.976;8.342;2023-08-17T11:14:01;2.70;;;2.50;;
2850;SDS011;1433;49.976;8.342;2023-08-17T11:16:28;2.60;;;2.43;;
2850;SDS011;1433;49.976;8.342;2023-08-17T11:18:54;2.90;;;2.70;;
2850;SDS011;1433;49.976;8.342;2023-08-17T11:21:22;2.50;;;2.30;;
2850;SDS011;1433;49.976;8.342;2023-08-17T11:23:49;2.80;;;2.60;;
2850;SDS011;1433;49.976;8.342;2023-08-17T11:26:16;2.40;;;2.03;;
2850;SDS011;1433;49.976;8.342;2023-08-17T11:28:43;5.83;;;2.50;;
2850;SDS011;1433;49.976;8.342;2023-08-17T11:31:10;2.80;;;2.47;;
2850;SDS011;1433;49.976;8.342;2023-08-17T11:33:38;2.80;;;2.00;;
2850;SDS011;1433;49.976;8.342;2023-08-17T11:36:05;1.97;;;1.87;;
2850;SDS011;1433;49.976;8.342;2023-08-17T11:38:33;2.07;;;1.87;;
2850;SDS011;1433;49.976;8.342;2023-08-17T11:41:01;2.30;;;2.10;;
2850;SDS011;1433;49.976;8.342;2023-08-17T11:43:33;2.10;;;1.93;;
2850;SDS011;1433;49.976;8.342;2023-08-17T11:46:00;3.40;;;2.23;;
2850;SDS011;1433;49.976;8.342;2023-08-17T11:48:27;2.03;;;1.83;;
2850;SDS011;1433;49.976;8.342;2023-08-17T11:50:54;2.10;;;1.90;;
2850;SDS011;1433;49.976;8.342;2023-08-17T11:53:23;2.47;;;2.27;;
2850;SDS011;1433;49.976;8.342;2023-08-17T11:55:50;2.30;;;2.10;;
2850;SDS011;1433;49.976;8.342;2023-08-17T11:58:16;2.60;;;2.40;;
2850;SDS011;1433;49.976;8.342;2023-08-17T12:00:43;3.10;;;2.80;;
2850;SDS011;1433;49.976;8.342;2023-08-17T12:03:14;3.20;;;2.53;;
2850;SDS011;1433;49.976;8.342;2023-08-17T12:05:41;2.40;;;2.20;;
2850;SDS011;1433;49.976;8.342;2023-08-17T12:08:09;3.70;;;2.67;;
2850;SDS011;1433;49.976;8.342;2023-08-17T12:10:36;4.30;;;2.70;;
2850;SDS011;1433;49.976;8.342;2023-08-17T12:13:03;2.30;;;2.10;;
2850;SDS011;1433;49.976;8.342;2023-08-17T12:15:30;2.37;;;1.90;;
2850;SDS011;1433;49.976;8.342;2023-08-17T12:17:58;4.57;;;2.67;;
2850;SDS011;1433;49.976;8.342;2023-08-17T12:20:26;2.57;;;2.37;;
2850;SDS011;1433;49.976;8.342;2023-08-17T12:22:52;3.70;;;2.57;;
2850;SDS011;1433;49.976;8.342;2023-08-17T12:25:20;2.10;;;2.00;;
2850;SDS011;1433;49.976;8.342;2023-08-17T12:27:49;3.23;;;2.40;;
2850;SDS011;1433;49.976;8.342;2023-08-17T12:30:28;2.43;;;2.23;;
2850;SDS011;1433;49.976;8.342;2023-08-17T12:32:58;2.80;;;2.60;;
2850;SDS011;1433;49.976;8.342;2023-08-17T12:35:25;1.70;;;1.60;;
2850;SDS011;1433;49.976;8.342;2023-08-17T12:37:52;3.77;;;3.47;;
2850;SDS011;1433;49.976;8.342;2023-08-17T12:40:19;2.37;;;1.77;;
2850;SDS011;1433;49.976;8.342;2023-08-17T12:42:46;2.40;;;2.20;;
2850;SDS011;1433;49.976;8.342;2023-08-17T12:45:13;1.87;;;1.77;;
2850;SDS011;1433;49.976;8.342;2023-08-17T12:47:39;2.00;;;1.87;;
2850;SDS011;1433;49.976;8.342;2023-08-17T12:50:06;2.17;;;1.80;;
2850;SDS011;1433;49.976;8.342;2023-08-17T12:52:37;2.47;;;2.17;;
2850;SDS011;1433;49.976;8.342;2023-08-17T12:55:01;3.43;;;2.53;;
2850;SDS011;1433;49.976;8.342;2023-08-17T12:57:27;2.17;;;2.00;;
2850;SDS011;1433;49.976;8.342;2023-08-17T12:59:54;3.40;;;2.53;;
2850;SDS011;1433;49.976;8.342;2023-08-17T13:02:20;3.30;;;2.50;;
2850;SDS011;1433;49.976;8.342;2023-08-17T13:04:47;3.20;;;2.33;;
2850;SDS011;1433;49.976;8.342;2023-08-17T13:07:13;2.67;;;2.40;;
2850;SDS011;1433;49.976;8.342;2023-08-17T13:09:39;2.73;;;2.37;;
2850;SDS011;1433;49.976;8.342;2023-08-17T13:12:05;2.13;;;2.03;;
2850;SDS011;1433;49.976;8.342;2023-08-17T13:14:32;2.90;;;2.40;;
2850;SDS011;1433;49.976;8.342;2023-08-17T13:16:58;4.23;;;2.30;;
2850;SDS011;1433;49.976;8.342;2023-08-17T13:19:24;2.20;;;2.00;;
2850;SDS011;1433;49.976;8.342;2023-08-17T13:21:50;1.87;;;1.73;;
2850;SDS011;1433;49.976;8.342;2023-08-17T13:24:16;3.30;;;2.73;;
2850;SDS011;1433;49.976;8.342;2023-08-17T13:26:43;3.23;;;2.60;;
2850;SDS011;1433;49.976;8.342;2023-08-17T13:29:09;3.60;;;2.30;;
2850;SDS011;1433;49.976;8.342;2023-08-17T13:31:35;2.77;;;2.00;;
2850;SDS011;1433;49.976;8.342;2023-08-17T13:34:01;2.43;;;2.23;;
2850;SDS011;1433;49.976;8.342;2023-08-17T13:36:27;4.27;;;2.63;;
2850;SDS011;1433;49.976;8.342;2023-08-17T13:38:54;2.53;;;2.33;;
2850;SDS011;1433;49.976;8.342;2023-08-17T13:41:20;2.83;;;2.63;;
2850;SDS011;1433;49.976;8.342;2023-08-17T13:43:46;4.23;;;1.77;;
2850;SDS011;1433;49.976;8.342;2023-08-17T13:46:12;5.20;;;1.93;;
2850;SDS011;1433;49.976;8.342;2023-08-17T13:48:38;2.93;;;1.80;;
2850;SDS011;1433;49.976;8.342;2023-08-17T13:51:05;2.70;;;1.63;;
2850;SDS011;1433;49.976;8.342;2023-08-17T13:53:31;2.97;;;2.67;;
2850;SDS011;1433;49.976;8.342;2023-08-17T13:55:57;5.77;;;1.77;;
2850;SDS011;1433;49.976;8.342;2023-08-17T13:58:23;2.03;;;1.70;;
2850;SDS011;1433;49.976;8.342;2023-08-17T14:00:49;1.90;;;1.80;;
2850;SDS011;1433;49.976;8.342;2023-08-17T14:03:15;2.20;;;2.00;;
2850;SDS011;1433;49.976;8.342;2023-08-17T14:05:41;2.30;;;2.10;;
2850;SDS011;1433;49.976;8.342;2023-08-17T14:08:08;3.40;;;2.70;;
2850;SDS011;1433;49.976;8.342;2023-08-17T14:10:36;3.03;;;1.90;;
2850;SDS011;1433;49.976;8.342;2023-08-17T14:13:02;1.93;;;1.63;;
2850;SDS011;1433;49.976;8.342;2023-08-17T14:15:30;2.67;;;2.10;;
2850;SDS011;1433;49.976;8.342;2023-08-17T14:17:56;4.00;;;2.17;;
2850;SDS011;1433;49.976;8.342;2023-08-17T14:20:23;1.60;;;1.50;;
2850;SDS011;1433;49.976;8.342;2023-08-17T14:22:49;1.93;;;1.67;;
2850;SDS011;1433;49.976;8.342;2023-08-17T14:25:15;2.73;;;1.70;;
2850;SDS011;1433;49.976;8.342;2023-08-17T14:27:42;2.20;;;2.00;;
2850;SDS011;1433;49.976;8.342;2023-08-17T14:30:08;1.87;;;1.53;;
2850;SDS011;1433;49.976;8.342;2023-08-17T14:32:34;2.33;;;2.20;;
2850;SDS011;1433;49.976;8.342;2023-08-17T14:35:01;1.90;;;1.70;;
2850;SDS011;1433;49.976;8.342;2023-08-17T14:37:28;2.20;;;2.00;;
2850;SDS011;1433;49.976;8.342;2023-08-17T14:39:54;2.33;;;2.13;;
2850;SDS011;1433;49.976;8.342;2023-08-17T14:42:20;1.60;;;1.50;;
2850;SDS011;1433;49.976;8.342;2023-08-17T14:44:46;2.43;;;2.23;;
2850;SDS011;1433;49.976;8.342;2023-08-17T14:47:12;2.83;;;2.20;;
2850;SDS011;1433;49.976;8.342;2023-08-17T14:49:38;2.23;;;2.03;;
2850;SDS011;1433;49.976;8.342;2023-08-17T14:52:05;1.93;;;1.73;;
2850;SDS011;1433;49.976;8.342;2023-08-17T14:54:31;2.57;;;2.17;;
2850;SDS011;1433;49.976;8.342;2023-08-17T14:56:57;2.60;;;2.27;;
2850;SDS011;1433;49.976;8.342;2023-08-17T14:59:23;3.00;;;1.90;;
2850;SDS011;1433;49.976;8.342;2023-08-17T15:01:49;3.57;;;2.30;;
2850;SDS011;1433;49.976;8.342;2023-08-17T15:04:17;2.27;;;2.07;;
2850;SDS011;1433;49.976;8.342;2023-08-17T15:06:43;6.50;;;1.87;;
2850;SDS011;1433;49.976;8.342;2023-08-17T15:09:09;3.40;;;2.33;;
2850;SDS011;1433;49.976;8.342;2023-08-17T15:11:35;2.33;;;1.97;;
2850;SDS011;1433;49.976;8.342;2023-08-17T15:14:01;2.80;;;1.93;;
2850;SDS011;1433;49.976;8.342;2023-08-17T15:16:28;2.50;;;1.30;;